sensor_id;sensor_type;location;lat;lon;timestamp;pressure;altitude;pressure_sealevel;temperature;humidity
28027;BME280;15344;52.342;-1.290;2022-08-04T00:01:08;99993.82;;;23.25;49.08
28027;BME280;15344;52.342;-1.290;2022-08-04T00:03:36;99993.98;;;23.22;48.86
28027;BME280;15344;52.342;-1.290;2022-08-04T00:05:59;99989.11;;;22.90;50.66
28027;BME280;15344;52.342;-1.290;2022-08-04T00:08:29;99993.19;;;23.15;50.08
28027;BME280;15344;52.342;-1.290;2022-08-04T00:10:48;99990.98;;;22.96;49.38
28027;BME280;15344;52.342;-1.290;2022-08-04T00:13:11;99989.49;;;22.92;51.08
28027;BME280;15344;52.342;-1.290;2022-08-04T00:15:36;99987.01;;;22.54;51.59
28027;BME280;15344;52.342;-1.290;2022-08-04T00:18:04;99987.94;;;22.78;50.38
28027;BME280;15344;52.342;-1.290;2022-08-04T00:20:30;99991.79;;;22.20;52.64
28027;BME280;15344;52.342;-1.290;2022-08-04T00:22:52;99991.73;;;22.62;51.63
28027;BME280;15344;52.342;-1.290;2022-08-04T00:25:16;99991.76;;;22.50;51.57
28027;BME280;15344;52.342;-1.290;2022-08-04T00:27:42;99997.31;;;21.88;55.81
28027;BME280;15344;52.342;-1.290;2022-08-04T00:30:07;99992.76;;;22.10;53.91
28027;BME280;15344;52.342;-1.290;2022-08-04T00:32:32;99989.48;;;22.07;54.11
28027;BME280;15344;52.342;-1.290;2022-08-04T00:34:58;99992.59;;;21.83;54.54
28027;BME280;15344;52.342;-1.290;2022-08-04T00:37:23;99992.32;;;21.01;57.17
28027;BME280;15344;52.342;-1.290;2022-08-04T00:39:48;99991.08;;;21.66;57.18
28027;BME280;15344;52.342;-1.290;2022-08-04T00:44:45;99987.21;;;21.18;58.22
28027;BME280;15344;52.342;-1.290;2022-08-04T00:47:12;99989.18;;;21.90;57.02
28027;BME280;15344;52.342;-1.290;2022-08-04T00:49:41;99983.50;;;20.99;58.46
28027;BME280;15344;52.342;-1.290;2022-08-04T00:52:03;99983.64;;;21.74;57.48
28027;BME280;15344;52.342;-1.290;2022-08-04T00:54:26;99983.39;;;21.04;58.40
28027;BME280;15344;52.342;-1.290;2022-08-04T00:56:56;99984.82;;;20.51;59.57
28027;BME280;15344;52.342;-1.290;2022-08-04T00:59:16;99988.01;;;20.83;60.68
28027;BME280;15344;52.342;-1.290;2022-08-04T01:01:43;99987.78;;;21.23;58.54
28027;BME280;15344;52.342;-1.290;2022-08-04T01:04:03;99989.76;;;21.62;58.13
28027;BME280;15344;52.342;-1.290;2022-08-04T01:06:34;99988.21;;;21.73;57.85
28027;BME280;15344;52.342;-1.290;2022-08-04T01:09:01;99985.45;;;20.71;59.01
28027;BME280;15344;52.342;-1.290;2022-08-04T01:11:26;99983.96;;;21.53;58.06
28027;BME280;15344;52.342;-1.290;2022-08-04T01:13:55;99982.90;;;20.96;59.03
28027;BME280;15344;52.342;-1.290;2022-08-04T01:16:07;99981.61;;;20.54;59.56
28027;BME280;15344;52.342;-1.290;2022-08-04T01:18:38;99986.38;;;20.30;62.07
28027;BME280;15344;52.342;-1.290;2022-08-04T01:21:05;99987.23;;;20.24;63.17
28027;BME280;15344;52.342;-1.290;2022-08-04T01:28:25;99984.49;;;20.43;61.98
28027;BME280;15344;52.342;-1.290;2022-08-04T01:30:37;99982.00;;;20.62;60.20
28027;BME280;15344;52.342;-1.290;2022-08-04T01:33:03;99980.80;;;21.09;60.15
28027;BME280;15344;52.342;-1.290;2022-08-04T01:35:29;99985.09;;;21.24;60.19
28027;BME280;15344;52.342;-1.290;2022-08-04T01:38:00;99986.33;;;20.22;62.33
28027;BME280;15344;52.342;-1.290;2022-08-04T01:40:17;99981.13;;;20.65;61.37
28027;BME280;15344;52.342;-1.290;2022-08-04T01:42:43;99982.58;;;20.65;61.60
28027;BME280;15344;52.342;-1.290;2022-08-04T01:45:10;99984.61;;;20.74;60.76
28027;BME280;15344;52.342;-1.290;2022-08-04T01:47:35;99983.48;;;20.73;61.39
28027;BME280;15344;52.342;-1.290;2022-08-04T01:50:04;99982.96;;;20.60;61.79
28027;BME280;15344;52.342;-1.290;2022-08-04T01:52:23;99984.86;;;19.90;62.50
28027;BME280;15344;52.342;-1.290;2022-08-04T01:54:48;99982.32;;;20.10;62.12
28027;BME280;15344;52.342;-1.290;2022-08-04T01:57:16;99975.16;;;20.90;60.35
28027;BME280;15344;52.342;-1.290;2022-08-04T01:59:38;99976.90;;;20.19;61.01
28027;BME280;15344;52.342;-1.290;2022-08-04T02:02:04;99971.02;;;20.78;61.03
28027;BME280;15344;52.342;-1.290;2022-08-04T02:04:29;99974.81;;;20.06;62.17
28027;BME280;15344;52.342;-1.290;2022-08-04T02:07:02;99970.28;;;20.74;60.79
28027;BME280;15344;52.342;-1.290;2022-08-04T02:09:23;99968.89;;;20.56;60.68
28027;BME280;15344;52.342;-1.290;2022-08-04T02:11:51;99972.02;;;19.89;62.84
28027;BME280;15344;52.342;-1.290;2022-08-04T02:14:19;99970.48;;;19.52;64.55
28027;BME280;15344;52.342;-1.290;2022-08-04T02:16:43;99968.78;;;19.42;64.12
28027;BME280;15344;52.342;-1.290;2022-08-04T02:19:06;99969.72;;;19.55;63.95
28027;BME280;15344;52.342;-1.290;2022-08-04T02:21:27;99966.53;;;20.74;61.26
28027;BME280;15344;52.342;-1.290;2022-08-04T02:23:58;99968.58;;;20.04;62.13
28027;BME280;15344;52.342;-1.290;2022-08-04T02:26:19;99964.38;;;20.16;61.40
28027;BME280;15344;52.342;-1.290;2022-08-04T02:28:47;99961.79;;;20.25;60.73
28027;BME280;15344;52.342;-1.290;2022-08-04T02:31:17;99960.95;;;21.12;58.90
28027;BME280;15344;52.342;-1.290;2022-08-04T02:33:36;99957.45;;;21.12;59.57
28027;BME280;15344;52.342;-1.290;2022-08-04T02:36:00;99954.10;;;20.74;59.56
28027;BME280;15344;52.342;-1.290;2022-08-04T02:38:30;99955.51;;;21.11;59.68
28027;BME280;15344;52.342;-1.290;2022-08-04T02:40:48;99960.81;;;20.49;60.16
28027;BME280;15344;52.342;-1.290;2022-08-04T02:43:14;99964.82;;;19.81;62.27
28027;BME280;15344;52.342;-1.290;2022-08-04T02:45:41;99962.52;;;20.21;60.09
28027;BME280;15344;52.342;-1.290;2022-08-04T02:48:04;99964.54;;;19.16;63.71
28027;BME280;15344;52.342;-1.290;2022-08-04T02:50:29;99962.02;;;20.07;60.66
28027;BME280;15344;52.342;-1.290;2022-08-04T02:52:55;99965.09;;;20.55;60.17
28027;BME280;15344;52.342;-1.290;2022-08-04T02:55:19;99967.86;;;19.66;62.19
28027;BME280;15344;52.342;-1.290;2022-08-04T02:57:46;99968.44;;;19.20;63.74
28027;BME280;15344;52.342;-1.290;2022-08-04T03:00:12;99969.66;;;19.91;61.68
28027;BME280;15344;52.342;-1.290;2022-08-04T03:02:46;99967.07;;;19.64;61.57
28027;BME280;15344;52.342;-1.290;2022-08-04T03:05:05;99964.43;;;19.60;61.95
28027;BME280;15344;52.342;-1.290;2022-08-04T03:07:40;99964.65;;;19.86;62.13
28027;BME280;15344;52.342;-1.290;2022-08-04T03:14:53;99964.66;;;20.16;60.21
28027;BME280;15344;52.342;-1.290;2022-08-04T03:26:58;99971.14;;;19.54;61.84
28027;BME280;15344;52.342;-1.290;2022-08-04T03:31:47;99973.76;;;19.42;62.18
28027;BME280;15344;52.342;-1.290;2022-08-04T03:34:18;99974.99;;;19.24;64.23
28027;BME280;15344;52.342;-1.290;2022-08-04T03:36:38;99978.65;;;20.23;60.55
28027;BME280;15344;52.342;-1.290;2022-08-04T03:39:02;99983.04;;;20.10;61.82
28027;BME280;15344;52.342;-1.290;2022-08-04T03:41:28;99984.90;;;19.52;62.74
28027;BME280;15344;52.342;-1.290;2022-08-04T03:51:11;99989.35;;;19.45;63.84
28027;BME280;15344;52.342;-1.290;2022-08-04T03:53:35;99988.85;;;19.12;64.37
28027;BME280;15344;52.342;-1.290;2022-08-04T03:56:00;99995.67;;;19.55;64.12
28027;BME280;15344;52.342;-1.290;2022-08-04T04:00:49;99997.81;;;18.13;67.38
28027;BME280;15344;52.342;-1.290;2022-08-04T04:03:17;100003.63;;;19.42;63.49
28027;BME280;15344;52.342;-1.290;2022-08-04T04:05:40;99999.75;;;19.43;63.05
28027;BME280;15344;52.342;-1.290;2022-08-04T04:10:34;100002.78;;;19.50;62.76
28027;BME280;15344;52.342;-1.290;2022-08-04T04:13:01;100003.96;;;19.72;60.66
28027;BME280;15344;52.342;-1.290;2022-08-04T04:15:24;99996.95;;;20.45;60.56
28027;BME280;15344;52.342;-1.290;2022-08-04T04:17:45;99995.65;;;20.30;59.06
28027;BME280;15344;52.342;-1.290;2022-08-04T04:22:47;100000.68;;;20.35;59.27
28027;BME280;15344;52.342;-1.290;2022-08-04T04:25:03;100005.37;;;20.10;60.49
28027;BME280;15344;52.342;-1.290;2022-08-04T04:27:30;99999.19;;;20.68;58.75
28027;BME280;15344;52.342;-1.290;2022-08-04T04:29:58;99997.67;;;21.18;57.11
28027;BME280;15344;52.342;-1.290;2022-08-04T04:32:21;100006.22;;;20.20;60.26
28027;BME280;15344;52.342;-1.290;2022-08-04T04:34:44;100007.88;;;19.90;60.76
28027;BME280;15344;52.342;-1.290;2022-08-04T04:37:11;100008.87;;;19.88;61.18
28027;BME280;15344;52.342;-1.290;2022-08-04T04:39:35;100006.33;;;20.73;58.98
28027;BME280;15344;52.342;-1.290;2022-08-04T04:42:03;100009.49;;;20.49;59.28
28027;BME280;15344;52.342;-1.290;2022-08-04T04:44:26;100007.31;;;20.45;59.35
28027;BME280;15344;52.342;-1.290;2022-08-04T04:46:44;100010.96;;;20.19;59.81
28027;BME280;15344;52.342;-1.290;2022-08-04T04:49:24;100011.51;;;20.67;59.16
28027;BME280;15344;52.342;-1.290;2022-08-04T04:51:37;100012.71;;;20.83;58.68
28027;BME280;15344;52.342;-1.290;2022-08-04T04:54:03;100015.22;;;20.68;58.71
28027;BME280;15344;52.342;-1.290;2022-08-04T04:56:26;100025.66;;;19.59;61.80
28027;BME280;15344;52.342;-1.290;2022-08-04T04:58:46;100026.36;;;19.51;61.99
28027;BME280;15344;52.342;-1.290;2022-08-04T05:03:48;100025.33;;;18.99;64.62
28027;BME280;15344;52.342;-1.290;2022-08-04T05:06:09;100029.09;;;19.60;63.41
28027;BME280;15344;52.342;-1.290;2022-08-04T05:11:07;100031.72;;;19.71;63.65
28027;BME280;15344;52.342;-1.290;2022-08-04T05:13:31;100028.25;;;19.53;63.93
28027;BME280;15344;52.342;-1.290;2022-08-04T05:15:45;100029.52;;;18.84;65.80
28027;BME280;15344;52.342;-1.290;2022-08-04T05:18:09;100029.46;;;20.23;62.73
28027;BME280;15344;52.342;-1.290;2022-08-04T05:20:36;100032.36;;;18.79;65.99
28027;BME280;15344;52.342;-1.290;2022-08-04T05:23:01;100037.74;;;19.90;62.97
28027;BME280;15344;52.342;-1.290;2022-08-04T05:25:27;100036.04;;;20.08;61.69
28027;BME280;15344;52.342;-1.290;2022-08-04T05:27:53;100035.07;;;19.82;61.79
28027;BME280;15344;52.342;-1.290;2022-08-04T05:30:15;100032.78;;;20.40;59.94
28027;BME280;15344;52.342;-1.290;2022-08-04T05:32:45;100040.27;;;18.35;65.92
28027;BME280;15344;52.342;-1.290;2022-08-04T05:35:09;100044.05;;;19.53;64.27
28027;BME280;15344;52.342;-1.290;2022-08-04T05:37:31;100038.25;;;20.31;63.11
28027;BME280;15344;52.342;-1.290;2022-08-04T05:39:57;100041.06;;;19.92;63.40
28027;BME280;15344;52.342;-1.290;2022-08-04T05:42:20;100042.68;;;19.23;65.93
28027;BME280;15344;52.342;-1.290;2022-08-04T05:44:45;100048.12;;;20.35;63.04
28027;BME280;15344;52.342;-1.290;2022-08-04T05:47:11;100050.49;;;20.07;62.76
28027;BME280;15344;52.342;-1.290;2022-08-04T05:49:37;100054.11;;;20.07;62.41
28027;BME280;15344;52.342;-1.290;2022-08-04T05:52:03;100059.23;;;20.34;63.30
28027;BME280;15344;52.342;-1.290;2022-08-04T05:54:28;100063.98;;;19.44;64.12
28027;BME280;15344;52.342;-1.290;2022-08-04T05:56:53;100068.36;;;19.62;64.74
28027;BME280;15344;52.342;-1.290;2022-08-04T05:59:18;100067.35;;;20.57;62.85
28027;BME280;15344;52.342;-1.290;2022-08-04T06:01:44;100069.77;;;19.21;65.58
28027;BME280;15344;52.342;-1.290;2022-08-04T06:04:08;100068.78;;;20.77;61.98
28027;BME280;15344;52.342;-1.290;2022-08-04T06:06:34;100077.27;;;19.57;64.68
28027;BME280;15344;52.342;-1.290;2022-08-04T06:08:58;100077.37;;;20.50;63.47
28027;BME280;15344;52.342;-1.290;2022-08-04T06:11:26;100078.27;;;20.27;62.22
28027;BME280;15344;52.342;-1.290;2022-08-04T06:13:52;100078.20;;;20.77;63.33
28027;BME280;15344;52.342;-1.290;2022-08-04T06:16:14;100078.63;;;21.17;61.08
28027;BME280;15344;52.342;-1.290;2022-08-04T06:18:40;100082.16;;;20.60;61.59
28027;BME280;15344;52.342;-1.290;2022-08-04T06:21:05;100079.82;;;19.56;65.54
28027;BME280;15344;52.342;-1.290;2022-08-04T06:23:31;100082.88;;;19.56;65.57
28027;BME280;15344;52.342;-1.290;2022-08-04T06:25:57;100084.73;;;20.38;63.30
28027;BME280;15344;52.342;-1.290;2022-08-04T06:28:20;100093.08;;;19.97;66.85
28027;BME280;15344;52.342;-1.290;2022-08-04T06:30:45;100094.17;;;19.35;67.10
28027;BME280;15344;52.342;-1.290;2022-08-04T06:33:11;100101.97;;;19.67;66.88
28027;BME280;15344;52.342;-1.290;2022-08-04T06:35:35;100101.81;;;20.39;64.20
28027;BME280;15344;52.342;-1.290;2022-08-04T06:38:02;100103.92;;;20.33;64.17
28027;BME280;15344;52.342;-1.290;2022-08-04T06:40:27;100103.81;;;20.08;66.24
28027;BME280;15344;52.342;-1.290;2022-08-04T06:42:51;100102.21;;;20.57;64.65
28027;BME280;15344;52.342;-1.290;2022-08-04T06:45:16;100103.30;;;20.54;64.22
28027;BME280;15344;52.342;-1.290;2022-08-04T06:47:41;100101.72;;;21.40;60.82
28027;BME280;15344;52.342;-1.290;2022-08-04T06:50:07;100101.78;;;21.72;60.15
28027;BME280;15344;52.342;-1.290;2022-08-04T06:52:31;100107.66;;;21.89;59.72
28027;BME280;15344;52.342;-1.290;2022-08-04T06:54:56;100110.55;;;21.29;61.04
28027;BME280;15344;52.342;-1.290;2022-08-04T06:57:23;100111.64;;;21.19;61.76
28027;BME280;15344;52.342;-1.290;2022-08-04T06:59:49;100112.69;;;21.28;61.67
28027;BME280;15344;52.342;-1.290;2022-08-04T07:02:14;100115.48;;;21.25;62.10
28027;BME280;15344;52.342;-1.290;2022-08-04T07:04:36;100122.35;;;20.62;63.10
28027;BME280;15344;52.342;-1.290;2022-08-04T07:07:02;100129.91;;;21.62;60.85
28027;BME280;15344;52.342;-1.290;2022-08-04T07:09:27;100130.66;;;20.99;62.86
28027;BME280;15344;52.342;-1.290;2022-08-04T07:11:53;100127.82;;;22.00;61.92
28027;BME280;15344;52.342;-1.290;2022-08-04T07:14:18;100129.10;;;21.40;62.41
28027;BME280;15344;52.342;-1.290;2022-08-04T07:16:43;100129.53;;;20.60;62.59
28027;BME280;15344;52.342;-1.290;2022-08-04T07:19:08;100127.45;;;22.13;59.32
28027;BME280;15344;52.342;-1.290;2022-08-04T07:21:34;100123.65;;;21.21;61.40
28027;BME280;15344;52.342;-1.290;2022-08-04T07:23:58;100119.21;;;21.68;60.97
28027;BME280;15344;52.342;-1.290;2022-08-04T07:26:27;100123.25;;;23.05;57.67
28027;BME280;15344;52.342;-1.290;2022-08-04T07:28:48;100125.03;;;22.83;56.88
28027;BME280;15344;52.342;-1.290;2022-08-04T07:31:15;100130.35;;;22.06;59.52
28027;BME280;15344;52.342;-1.290;2022-08-04T07:33:41;100130.62;;;22.57;58.12
28027;BME280;15344;52.342;-1.290;2022-08-04T07:36:04;100135.80;;;23.68;55.63
28027;BME280;15344;52.342;-1.290;2022-08-04T07:38:29;100136.04;;;23.18;56.17
28027;BME280;15344;52.342;-1.290;2022-08-04T07:40:54;100135.33;;;22.68;56.43
28027;BME280;15344;52.342;-1.290;2022-08-04T07:43:19;100143.85;;;22.38;57.77
28027;BME280;15344;52.342;-1.290;2022-08-04T07:45:44;100147.87;;;22.28;57.36
28027;BME280;15344;52.342;-1.290;2022-08-04T07:48:10;100148.41;;;22.64;56.11
28027;BME280;15344;52.342;-1.290;2022-08-04T07:50:35;100148.58;;;23.61;56.43
28027;BME280;15344;52.342;-1.290;2022-08-04T07:53:00;100152.19;;;22.27;58.26
28027;BME280;15344;52.342;-1.290;2022-08-04T07:55:25;100148.44;;;24.04;56.20
28027;BME280;15344;52.342;-1.290;2022-08-04T07:57:50;100151.94;;;23.61;53.27
28027;BME280;15344;52.342;-1.290;2022-08-04T08:00:16;100157.61;;;24.26;50.74
28027;BME280;15344;52.342;-1.290;2022-08-04T08:02:41;100156.37;;;23.73;52.57
28027;BME280;15344;52.342;-1.290;2022-08-04T08:05:07;100160.18;;;24.19;51.34
28027;BME280;15344;52.342;-1.290;2022-08-04T08:07:30;100164.27;;;23.87;51.54
28027;BME280;15344;52.342;-1.290;2022-08-04T08:09:56;100165.69;;;24.36;51.17
28027;BME280;15344;52.342;-1.290;2022-08-04T08:12:22;100165.95;;;25.51;50.78
28027;BME280;15344;52.342;-1.290;2022-08-04T08:14:48;100163.09;;;23.58;52.79
28027;BME280;15344;52.342;-1.290;2022-08-04T08:17:13;100160.23;;;25.46;48.94
28027;BME280;15344;52.342;-1.290;2022-08-04T08:19:39;100163.11;;;24.97;48.96
28027;BME280;15344;52.342;-1.290;2022-08-04T08:22:05;100165.26;;;22.94;52.68
28027;BME280;15344;52.342;-1.290;2022-08-04T08:24:35;100164.05;;;25.02;49.83
28027;BME280;15344;52.342;-1.290;2022-08-04T08:26:57;100161.31;;;25.52;46.42
28027;BME280;15344;52.342;-1.290;2022-08-04T08:29:23;100163.37;;;25.97;45.76
28027;BME280;15344;52.342;-1.290;2022-08-04T08:31:48;100165.14;;;26.33;44.50
28027;BME280;15344;52.342;-1.290;2022-08-04T08:34:14;100167.83;;;27.10;41.93
28027;BME280;15344;52.342;-1.290;2022-08-04T08:36:45;100171.54;;;25.41;44.35
28027;BME280;15344;52.342;-1.290;2022-08-04T08:39:11;100175.00;;;26.54;44.43
28027;BME280;15344;52.342;-1.290;2022-08-04T08:41:48;100170.77;;;25.23;45.56
28027;BME280;15344;52.342;-1.290;2022-08-04T08:44:08;100173.61;;;24.87;44.15
28027;BME280;15344;52.342;-1.290;2022-08-04T08:46:40;100173.81;;;25.89;43.44
28027;BME280;15344;52.342;-1.290;2022-08-04T08:49:02;100176.06;;;24.36;46.52
28027;BME280;15344;52.342;-1.290;2022-08-04T08:51:25;100175.32;;;26.52;43.24
28027;BME280;15344;52.342;-1.290;2022-08-04T08:53:49;100174.66;;;26.02;42.85
28027;BME280;15344;52.342;-1.290;2022-08-04T08:56:15;100175.07;;;26.39;41.45
28027;BME280;15344;52.342;-1.290;2022-08-04T08:58:44;100177.32;;;26.45;41.57
28027;BME280;15344;52.342;-1.290;2022-08-04T09:01:06;100177.71;;;27.01;42.49
28027;BME280;15344;52.342;-1.290;2022-08-04T09:05:59;100186.02;;;28.74;38.82
28027;BME280;15344;52.342;-1.290;2022-08-04T09:08:26;100181.80;;;25.16;41.03
28027;BME280;15344;52.342;-1.290;2022-08-04T09:10:44;100180.66;;;27.23;38.60
28027;BME280;15344;52.342;-1.290;2022-08-04T09:13:12;100177.46;;;25.95;39.99
28027;BME280;15344;52.342;-1.290;2022-08-04T09:15:36;100178.99;;;26.11;40.44
28027;BME280;15344;52.342;-1.290;2022-08-04T09:18:04;100183.36;;;25.93;42.79
28027;BME280;15344;52.342;-1.290;2022-08-04T09:20:30;100176.72;;;26.57;43.57
28027;BME280;15344;52.342;-1.290;2022-08-04T09:22:53;100180.78;;;26.54;39.54
28027;BME280;15344;52.342;-1.290;2022-08-04T09:25:21;100180.84;;;25.64;41.69
28027;BME280;15344;52.342;-1.290;2022-08-04T09:27:46;100184.95;;;22.87;46.34
28027;BME280;15344;52.342;-1.290;2022-08-04T09:30:09;100186.04;;;25.27;42.83
28027;BME280;15344;52.342;-1.290;2022-08-04T09:32:40;100189.57;;;25.98;41.00
28027;BME280;15344;52.342;-1.290;2022-08-04T09:35:09;100190.70;;;23.56;42.09
28027;BME280;15344;52.342;-1.290;2022-08-04T09:37:32;100184.17;;;24.86;40.93
28027;BME280;15344;52.342;-1.290;2022-08-04T09:39:57;100185.75;;;26.05;37.22
28027;BME280;15344;52.342;-1.290;2022-08-04T09:42:24;100182.82;;;26.52;36.73
28027;BME280;15344;52.342;-1.290;2022-08-04T09:44:47;100180.10;;;26.69;35.83
28027;BME280;15344;52.342;-1.290;2022-08-04T09:47:13;100178.62;;;25.75;37.19
28027;BME280;15344;52.342;-1.290;2022-08-04T09:49:38;100184.24;;;24.73;40.58
28027;BME280;15344;52.342;-1.290;2022-08-04T09:52:08;100180.56;;;25.69;39.71
28027;BME280;15344;52.342;-1.290;2022-08-04T09:54:32;100181.82;;;26.29;39.63
28027;BME280;15344;52.342;-1.290;2022-08-04T09:56:56;100184.53;;;24.38;40.88
28027;BME280;15344;52.342;-1.290;2022-08-04T09:59:23;100181.33;;;25.39;40.02
28027;BME280;15344;52.342;-1.290;2022-08-04T10:01:42;100178.74;;;25.85;40.59
28027;BME280;15344;52.342;-1.290;2022-08-04T10:04:12;100176.46;;;26.93;37.73
28027;BME280;15344;52.342;-1.290;2022-08-04T10:06:47;100178.31;;;28.17;34.35
28027;BME280;15344;52.342;-1.290;2022-08-04T10:09:13;100181.37;;;28.14;34.93
28027;BME280;15344;52.342;-1.290;2022-08-04T10:11:36;100178.87;;;26.83;35.27
28027;BME280;15344;52.342;-1.290;2022-08-04T10:13:56;100177.64;;;24.18;38.19
28027;BME280;15344;52.342;-1.290;2022-08-04T10:18:49;100191.74;;;22.63;40.23
28027;BME280;15344;52.342;-1.290;2022-08-04T10:21:13;100195.99;;;24.72;38.91
28027;BME280;15344;52.342;-1.290;2022-08-04T10:23:44;100197.11;;;25.42;37.45
28027;BME280;15344;52.342;-1.290;2022-08-04T10:26:09;100198.30;;;23.68;40.01
28027;BME280;15344;52.342;-1.290;2022-08-04T10:28:27;100200.80;;;23.15;40.29
28027;BME280;15344;52.342;-1.290;2022-08-04T10:30:56;100200.41;;;22.31;41.93
28027;BME280;15344;52.342;-1.290;2022-08-04T10:33:23;100200.09;;;22.48;42.88
28027;BME280;15344;52.342;-1.290;2022-08-04T10:35:47;100193.34;;;22.99;42.39
28027;BME280;15344;52.342;-1.290;2022-08-04T10:38:14;100195.85;;;25.42;39.52
28027;BME280;15344;52.342;-1.290;2022-08-04T10:40:40;100199.31;;;22.39;40.84
28027;BME280;15344;52.342;-1.290;2022-08-04T10:43:04;100203.27;;;24.73;39.67
28027;BME280;15344;52.342;-1.290;2022-08-04T10:45:33;100205.15;;;24.35;37.55
28027;BME280;15344;52.342;-1.290;2022-08-04T10:47:58;100210.59;;;25.29;37.72
28027;BME280;15344;52.342;-1.290;2022-08-04T10:50:19;100217.47;;;24.23;36.92
28027;BME280;15344;52.342;-1.290;2022-08-04T10:52:50;100218.75;;;23.32;39.52
28027;BME280;15344;52.342;-1.290;2022-08-04T10:55:16;100218.11;;;23.40;39.08
28027;BME280;15344;52.342;-1.290;2022-08-04T10:57:39;100220.68;;;23.51;39.17
28027;BME280;15344;52.342;-1.290;2022-08-04T11:00:05;100221.41;;;23.50;40.95
28027;BME280;15344;52.342;-1.290;2022-08-04T11:02:36;100225.02;;;22.84;40.81
28027;BME280;15344;52.342;-1.290;2022-08-04T11:05:00;100232.75;;;23.97;38.42
28027;BME280;15344;52.342;-1.290;2022-08-04T11:07:20;100239.23;;;24.71;38.12
28027;BME280;15344;52.342;-1.290;2022-08-04T11:09:45;100240.83;;;24.57;38.87
28027;BME280;15344;52.342;-1.290;2022-08-04T11:12:15;100237.98;;;25.34;38.12
28027;BME280;15344;52.342;-1.290;2022-08-04T11:14:40;100238.87;;;23.39;38.35
28027;BME280;15344;52.342;-1.290;2022-08-04T11:17:06;100239.97;;;25.31;36.62
28027;BME280;15344;52.342;-1.290;2022-08-04T11:19:33;100245.08;;;23.91;37.13
28027;BME280;15344;52.342;-1.290;2022-08-04T11:21:57;100240.37;;;23.71;36.57
28027;BME280;15344;52.342;-1.290;2022-08-04T11:24:24;100250.73;;;25.27;36.40
28027;BME280;15344;52.342;-1.290;2022-08-04T11:26:50;100257.05;;;24.71;34.52
28027;BME280;15344;52.342;-1.290;2022-08-04T11:29:20;100248.17;;;25.00;34.10
28027;BME280;15344;52.342;-1.290;2022-08-04T11:31:40;100252.49;;;24.65;37.27
28027;BME280;15344;52.342;-1.290;2022-08-04T11:34:08;100253.10;;;25.31;35.02
28027;BME280;15344;52.342;-1.290;2022-08-04T11:36:35;100261.83;;;24.91;34.24
28027;BME280;15344;52.342;-1.290;2022-08-04T11:39:01;100257.25;;;23.95;35.96
28027;BME280;15344;52.342;-1.290;2022-08-04T11:41:30;100263.53;;;23.07;35.01
28027;BME280;15344;52.342;-1.290;2022-08-04T11:43:52;100268.10;;;21.91;36.25
28027;BME280;15344;52.342;-1.290;2022-08-04T11:46:17;100261.92;;;23.03;36.92
28027;BME280;15344;52.342;-1.290;2022-08-04T11:48:41;100260.62;;;23.84;34.74
28027;BME280;15344;52.342;-1.290;2022-08-04T11:51:05;100259.55;;;24.40;34.18
28027;BME280;15344;52.342;-1.290;2022-08-04T11:53:30;100265.20;;;25.00;35.46
28027;BME280;15344;52.342;-1.290;2022-08-04T11:56:00;100271.55;;;24.15;35.00
28027;BME280;15344;52.342;-1.290;2022-08-04T11:58:21;100273.72;;;25.25;34.40
28027;BME280;15344;52.342;-1.290;2022-08-04T12:00:54;100270.56;;;24.78;34.76
28027;BME280;15344;52.342;-1.290;2022-08-04T12:03:20;100269.79;;;26.40;33.68
28027;BME280;15344;52.342;-1.290;2022-08-04T12:05:49;100274.83;;;25.26;34.98
28027;BME280;15344;52.342;-1.290;2022-08-04T12:08:20;100269.11;;;24.94;32.67
28027;BME280;15344;52.342;-1.290;2022-08-04T12:10:40;100268.81;;;25.42;33.28
28027;BME280;15344;52.342;-1.290;2022-08-04T12:13:07;100262.25;;;26.25;32.09
28027;BME280;15344;52.342;-1.290;2022-08-04T12:15:26;100267.73;;;25.84;32.11
28027;BME280;15344;52.342;-1.290;2022-08-04T12:17:56;100260.49;;;23.26;34.38
28027;BME280;15344;52.342;-1.290;2022-08-04T12:20:17;100265.38;;;25.29;34.32
28027;BME280;15344;52.342;-1.290;2022-08-04T12:22:44;100271.93;;;25.21;33.35
28027;BME280;15344;52.342;-1.290;2022-08-04T12:25:07;100265.48;;;22.86;35.00
28027;BME280;15344;52.342;-1.290;2022-08-04T12:27:34;100271.20;;;21.12;36.66
28027;BME280;15344;52.342;-1.290;2022-08-04T12:29:57;100270.30;;;22.36;35.30
28027;BME280;15344;52.342;-1.290;2022-08-04T12:32:28;100267.86;;;24.66;34.69
28027;BME280;15344;52.342;-1.290;2022-08-04T12:34:57;100269.77;;;22.89;35.01
28027;BME280;15344;52.342;-1.290;2022-08-04T12:37:22;100277.81;;;23.38;38.92
28027;BME280;15344;52.342;-1.290;2022-08-04T12:39:44;100281.02;;;23.82;37.41
28027;BME280;15344;52.342;-1.290;2022-08-04T12:42:12;100280.00;;;24.06;34.02
28027;BME280;15344;52.342;-1.290;2022-08-04T12:44:35;100278.77;;;22.35;35.29
28027;BME280;15344;52.342;-1.290;2022-08-04T12:46:58;100278.92;;;23.39;32.85
28027;BME280;15344;52.342;-1.290;2022-08-04T12:49:24;100276.86;;;26.50;32.26
28027;BME280;15344;52.342;-1.290;2022-08-04T12:51:50;100285.34;;;24.71;33.63
28027;BME280;15344;52.342;-1.290;2022-08-04T12:54:21;100288.15;;;25.47;31.73
28027;BME280;15344;52.342;-1.290;2022-08-04T12:56:41;100292.52;;;25.05;31.59
28027;BME280;15344;52.342;-1.290;2022-08-04T12:59:10;100289.38;;;25.30;30.95
28027;BME280;15344;52.342;-1.290;2022-08-04T13:01:34;100294.50;;;26.56;30.32
28027;BME280;15344;52.342;-1.290;2022-08-04T13:04:01;100301.66;;;25.42;30.55
28027;BME280;15344;52.342;-1.290;2022-08-04T13:06:26;100295.04;;;25.89;29.82
28027;BME280;15344;52.342;-1.290;2022-08-04T13:08:50;100292.83;;;24.46;29.93
28027;BME280;15344;52.342;-1.290;2022-08-04T13:11:16;100291.57;;;24.58;30.59
28027;BME280;15344;52.342;-1.290;2022-08-04T13:13:48;100291.91;;;24.78;30.60
28027;BME280;15344;52.342;-1.290;2022-08-04T13:16:09;100282.35;;;25.89;29.92
28027;BME280;15344;52.342;-1.290;2022-08-04T13:18:35;100284.64;;;24.17;30.50
28027;BME280;15344;52.342;-1.290;2022-08-04T13:21:10;100281.72;;;23.02;31.22